Time;durP1;ratioP1;P1;durP2;ratioP2;P2;SDS_P1;SDS_P2;PMS_P1;PMS_P2;Temp;Humidity;BMP_temperature;BMP_pressure;BME280_temperature;BME280_humidity;BME280_pressure;Samples;Min_cycle;Max_cycle;Signal;HPM_P1;HPM_P2
2022/05/27 00:01:45;;;;;;;4.20;2.15;;;;;;;;;;4955189;28;20015;-77
2022/05/27 00:04:11;;;;;;;4.82;2.55;;;;;;;;;;4967502;28;20038;-77
2022/05/27 00:06:37;;;;;;;4.68;1.90;;;;;;;;;;4973908;28;20131;-77
2022/05/27 00:09:03;;;;;;;4.70;2.38;;;;;;;;;;4974298;28;20035;-77
2022/05/27 00:11:29;;;;;;;4.57;2.25;;;;;;;;;;4973006;28;20035;-76
2022/05/27 00:13:55;;;;;;;4.30;2.20;;;;;;;;;;4973377;28;20031;-77
2022/05/27 00:16:21;;;;;;;4.55;2.17;;;;;;;;;;4961214;28;20031;-77
2022/05/27 00:18:47;;;;;;;4.40;2.25;;;;;;;;;;4955532;28;20023;-77
2022/05/27 00:21:14;;;;;;;4.25;2.25;;;;;;;;;;4972318;28;20030;-77
2022/05/27 00:23:40;;;;;;;3.90;1.98;;;;;;;;;;4973246;28;20045;-77
2022/05/27 00:26:07;;;;;;;3.67;2.13;;;;;;;;;;4974014;28;20023;-77
2022/05/27 00:28:33;;;;;;;3.75;2.10;;;;;;;;;;4973464;28;20046;-76
2022/05/27 00:30:59;;;;;;;6.82;2.78;;;;;;;;;;4973197;28;20034;-77
2022/05/27 00:33:25;;;;;;;4.65;2.00;;;;;;;;;;4974238;28;20041;-76
2022/05/27 00:35:51;;;;;;;4.88;2.20;;;;;;;;;;4974643;28;20027;-77
2022/05/27 00:38:17;;;;;;;4.28;2.72;;;;;;;;;;4971483;28;20029;-76
2022/05/27 00:40:46;;;;;;;4.43;2.47;;;;;;;;;;4973644;28;20464;-77
2022/05/27 00:43:12;;;;;;;4.30;2.45;;;;;;;;;;4973785;28;20027;-77
2022/05/27 00:45:39;;;;;;;5.13;2.50;;;;;;;;;;4967280;28;20429;-77
2022/05/27 00:48:07;;;;;;;5.15;2.40;;;;;;;;;;4952937;28;20066;-77
2022/05/27 00:50:38;;;;;;;4.68;2.92;;;;;;;;;;4953258;28;20427;-77
2022/05/27 00:53:05;;;;;;;5.20;2.35;;;;;;;;;;4953924;28;20030;-76
2022/05/27 00:55:33;;;;;;;4.05;2.38;;;;;;;;;;4957216;28;20027;-76
2022/05/27 00:57:59;;;;;;;4.55;2.95;;;;;;;;;;4972456;28;20039;-77
2022/05/27 01:00:26;;;;;;;3.80;2.30;;;;;;;;;;4973045;28;20022;-77
2022/05/27 01:02:54;;;;;;;4.53;2.50;;;;;;;;;;4973137;28;20362;-76
2022/05/27 01:05:21;;;;;;;5.40;2.53;;;;;;;;;;4971962;28;20034;-77
2022/05/27 01:07:47;;;;;;;3.95;2.25;;;;;;;;;;4973372;28;20023;-77
2022/05/27 01:10:15;;;;;;;5.30;2.80;;;;;;;;;;4971895;28;20046;-76
2022/05/27 01:12:52;;;;;;;4.10;2.20;;;;;;;;;;4968997;28;20035;-77
2022/05/27 01:15:36;;;;;;;4.47;2.50;;;;;;;;;;4967715;28;20440;-77
2022/05/27 01:18:17;;;;;;;3.97;2.45;;;;;;;;;;4972838;28;20111;-77
2022/05/27 01:20:46;;;;;;;5.03;2.55;;;;;;;;;;4972353;28;20033;-77
2022/05/27 01:23:25;;;;;;;3.55;1.95;;;;;;;;;;4965567;28;20081;-77
2022/05/27 01:26:09;;;;;;;4.30;2.38;;;;;;;;;;4970061;28;20059;-76
2022/05/27 01:28:44;;;;;;;4.40;2.08;;;;;;;;;;4972368;28;20343;-76
2022/05/27 01:31:16;;;;;;;4.65;2.45;;;;;;;;;;4971873;28;20129;-76
2022/05/27 01:34:00;;;;;;;6.80;2.55;;;;;;;;;;4972496;28;20027;-77
2022/05/27 01:36:27;;;;;;;5.75;2.58;;;;;;;;;;4972742;28;20266;-76
2022/05/27 01:38:53;;;;;;;4.50;2.33;;;;;;;;;;4971810;28;20412;-77
2022/05/27 01:41:43;;;;;;;5.32;2.45;;;;;;;;;;4972237;28;20023;-77
2022/05/27 01:44:15;;;;;;;4.90;2.50;;;;;;;;;;4971988;28;20026;-77
2022/05/27 01:46:46;;;;;;;5.03;2.50;;;;;;;;;;4972732;28;20027;-77
2022/05/27 01:49:27;;;;;;;4.47;2.47;;;;;;;;;;4972036;28;20497;-77
2022/05/27 01:51:54;;;;;;;5.35;2.70;;;;;;;;;;4972021;28;20030;-77
2022/05/27 01:54:22;;;;;;;4.55;2.40;;;;;;;;;;4971918;28;20023;-77
2022/05/27 01:56:55;;;;;;;4.82;2.53;;;;;;;;;;4967779;28;20291;-77
2022/05/27 01:59:21;;;;;;;;;;;;;;;;;;4971091;28;20019;-76
2022/05/27 02:01:54;;;;;;;3.65;2.08;;;;;;;;;;4970927;28;19911;-76
2022/05/27 02:04:28;;;;;;;5.38;2.63;;;;;;;;;;4970668;28;20089;-77
2022/05/27 02:06:59;;;;;;;5.53;2.38;;;;;;;;;;4971670;28;20077;-77
2022/05/27 02:09:28;;;;;;;5.20;2.70;;;;;;;;;;4967919;28;20034;-77
2022/05/27 02:11:57;;;;;;;4.85;2.30;;;;;;;;;;4970792;28;20097;-77
2022/05/27 02:14:25;;;;;;;5.55;2.50;;;;;;;;;;4972541;28;20082;-76
2022/05/27 02:16:58;;;;;;;6.53;2.50;;;;;;;;;;4972272;28;20085;-77
2022/05/27 02:19:39;;;;;;;4.32;2.22;;;;;;;;;;4972129;28;20023;-77
2022/05/27 02:22:08;;;;;;;4.53;2.88;;;;;;;;;;4964270;28;20027;-76
2022/05/27 02:24:37;;;;;;;4.30;2.30;;;;;;;;;;4971627;28;20109;-77
2022/05/27 02:27:25;;;;;;;4.70;2.67;;;;;;;;;;4971964;28;20066;-77
2022/05/27 02:29:53;;;;;;;4.55;2.50;;;;;;;;;;4972117;28;20113;-77
2022/05/27 02:32:24;;;;;;;4.80;2.83;;;;;;;;;;4970857;28;20622;-76
2022/05/27 02:35:07;;;;;;;4.38;2.63;;;;;;;;;;4974516;28;20460;-76
2022/05/27 02:37:35;;;;;;;4.95;2.88;;;;;;;;;;4975611;28;20029;-76
2022/05/27 02:40:04;;;;;;;5.05;2.75;;;;;;;;;;4974557;28;20027;-77
2022/05/27 02:42:49;;;;;;;4.68;2.67;;;;;;;;;;4975164;28;20035;-77
2022/05/27 02:45:24;;;;;;;5.10;2.72;;;;;;;;;;4973857;28;20054;-77
2022/05/27 02:48:09;;;;;;;4.60;2.70;;;;;;;;;;4975518;28;20026;-77
2022/05/27 02:50:40;;;;;;;5.43;3.03;;;;;;;;;;4975643;28;20026;-77
2022/05/27 02:53:09;;;;;;;5.28;2.65;;;;;;;;;;4965587;28;20428;-77
2022/05/27 02:55:41;;;;;;;4.63;2.72;;;;;;;;;;4975282;28;20519;-77
2022/05/27 02:58:08;;;;;;;5.18;2.65;;;;;;;;;;4974946;28;20027;-77
2022/05/27 03:00:36;;;;;;;4.45;2.53;;;;;;;;;;4975421;28;20030;-77
2022/05/27 03:03:02;;;;;;;5.05;3.22;;;;;;;;;;4973942;28;20382;-77
2022/05/27 03:05:37;;;;;;;4.60;2.42;;;;;;;;;;4974806;28;20023;-77
2022/05/27 03:08:12;;;;;;;4.53;2.42;;;;;;;;;;4975255;28;20033;-77
2022/05/27 03:10:41;;;;;;;4.72;2.42;;;;;;;;;;4956128;28;20035;-76
2022/05/27 03:13:11;;;;;;;5.13;3.20;;;;;;;;;;4966975;28;20042;-77
2022/05/27 03:16:04;;;;;;;5.63;2.63;;;;;;;;;;4975179;28;20436;-77
2022/05/27 03:18:30;;;;;;;;;;;;;;;;;;4963050;28;20472;-77
2022/05/27 03:21:19;;;;;;;4.47;2.50;;;;;;;;;;4975001;28;19910;-77
2022/05/27 03:23:48;;;;;;;5.63;2.97;;;;;;;;;;4982696;28;20045;-77
2022/05/27 03:26:33;;;;;;;5.18;2.75;;;;;;;;;;4975088;28;20085;-78
2022/05/27 03:29:22;;;;;;;5.43;2.83;;;;;;;;;;4975070;28;20043;-77
2022/05/27 03:31:55;;;;;;;4.93;2.78;;;;;;;;;;4967894;28;20085;-77
2022/05/27 03:34:24;;;;;;;4.15;2.42;;;;;;;;;;4974671;28;20551;-77
2022/05/27 03:37:11;;;;;;;5.20;2.90;;;;;;;;;;4974758;28;20130;-77
2022/05/27 03:39:44;;;;;;;3.90;2.35;;;;;;;;;;4973324;28;20029;-77
2022/05/27 03:42:10;;;;;;;;;;;;;;;;;;4975284;28;20097;-77
2022/05/27 03:44:36;;;;;;;4.53;2.90;;;;;;;;;;4973902;28;19925;-77
2022/05/27 03:47:03;;;;;;;5.18;3.25;;;;;;;;;;4973749;28;20023;-77
2022/05/27 03:49:29;;;;;;;4.85;2.60;;;;;;;;;;4974703;28;20027;-77
2022/05/27 03:51:58;;;;;;;4.50;2.95;;;;;;;;;;4972823;28;20122;-77
2022/05/27 03:54:24;;;;;;;4.82;2.72;;;;;;;;;;4966996;28;20037;-77
2022/05/27 03:56:50;;;;;;;4.63;2.40;;;;;;;;;;4973508;28;20027;-77
2022/05/27 03:59:17;;;;;;;4.68;2.50;;;;;;;;;;4972480;28;20027;-77
2022/05/27 04:01:46;;;;;;;4.50;2.45;;;;;;;;;;4971467;28;20034;-77
2022/05/27 04:04:13;;;;;;;5.90;3.05;;;;;;;;;;4974331;28;20023;-77
2022/05/27 04:06:40;;;;;;;4.88;2.70;;;;;;;;;;4973661;28;20054;-77
2022/05/27 04:09:06;;;;;;;4.65;2.28;;;;;;;;;;4972934;28;20030;-77
2022/05/27 04:11:32;;;;;;;4.72;2.33;;;;;;;;;;4965927;28;20023;-77
2022/05/27 04:13:58;;;;;;;5.28;2.78;;;;;;;;;;4970471;28;20106;-78
2022/05/27 04:16:24;;;;;;;5.28;2.65;;;;;;;;;;4966918;28;20459;-77
2022/05/27 04:18:50;;;;;;;5.45;2.45;;;;;;;;;;4974172;28;20138;-77
2022/05/27 04:21:17;;;;;;;3.88;2.35;;;;;;;;;;4964653;28;20485;-77
2022/05/27 04:23:43;;;;;;;4.38;2.30;;;;;;;;;;4969815;28;20035;-77
2022/05/27 04:26:09;;;;;;;5.43;2.80;;;;;;;;;;4971765;28;20020;-77
2022/05/27 04:28:36;;;;;;;6.50;3.15;;;;;;;;;;4973520;28;20059;-77
2022/05/27 04:31:02;;;;;;;6.70;2.78;;;;;;;;;;4962420;28;20114;-78
2022/05/27 04:33:29;;;;;;;5.00;2.40;;;;;;;;;;4967631;28;20047;-77
2022/05/27 04:35:55;;;;;;;4.40;2.92;;;;;;;;;;4967651;28;20023;-77
2022/05/27 04:38:22;;;;;;;5.82;3.20;;;;;;;;;;4966992;28;20413;-77
2022/05/27 04:40:48;;;;;;;5.13;2.80;;;;;;;;;;4973537;28;20409;-77
2022/05/27 04:43:14;;;;;;;3.97;2.40;;;;;;;;;;4965193;28;20084;-77
2022/05/27 04:45:40;;;;;;;6.05;3.72;;;;;;;;;;4969676;28;20047;-77
2022/05/27 04:48:07;;;;;;;5.15;2.80;;;;;;;;;;4954306;28;20494;-77
2022/05/27 04:50:33;;;;;;;7.63;3.10;;;;;;;;;;4954411;28;20544;-77
2022/05/27 04:52:59;;;;;;;5.40;3.10;;;;;;;;;;4970379;28;20034;-78
2022/05/27 04:55:26;;;;;;;4.47;2.90;;;;;;;;;;4963338;28;20114;-77
2022/05/27 04:57:54;;;;;;;4.45;2.40;;;;;;;;;;4972665;28;20047;-77
2022/05/27 05:00:22;;;;;;;4.93;2.88;;;;;;;;;;4973320;28;20019;-77
2022/05/27 05:02:48;;;;;;;4.35;2.20;;;;;;;;;;4971462;28;20029;-77
2022/05/27 05:05:15;;;;;;;4.45;2.08;;;;;;;;;;4972049;28;20099;-77
2022/05/27 05:07:42;;;;;;;3.95;2.10;;;;;;;;;;4971885;28;20504;-77
2022/05/27 05:10:09;;;;;;;5.32;1.92;;;;;;;;;;4966383;28;20328;-77
2022/05/27 05:12:35;;;;;;;4.15;1.85;;;;;;;;;;4968165;28;20129;-77
2022/05/27 05:15:01;;;;;;;4.43;1.88;;;;;;;;;;4970660;28;20027;-77
2022/05/27 05:17:27;;;;;;;5.03;1.83;;;;;;;;;;4969893;28;20508;-77
2022/05/27 05:19:55;;;;;;;5.45;2.80;;;;;;;;;;4972687;28;20058;-76
2022/05/27 05:22:22;;;;;;;3.70;1.85;;;;;;;;;;4973102;28;20517;-77
2022/05/27 05:24:48;;;;;;;4.05;1.88;;;;;;;;;;4967187;28;20035;-76
2022/05/27 05:27:14;;;;;;;4.35;1.80;;;;;;;;;;4965042;28;20405;-77
2022/05/27 05:29:41;;;;;;;4.30;1.70;;;;;;;;;;4971895;28;20097;-77
2022/05/27 05:32:07;;;;;;;4.50;2.15;;;;;;;;;;4972875;28;20048;-77
2022/05/27 05:34:33;;;;;;;4.32;1.92;;;;;;;;;;4970706;28;20114;-77
2022/05/27 05:36:59;;;;;;;4.53;1.70;;;;;;;;;;4972619;28;20082;-76
2022/05/27 05:39:25;;;;;;;4.00;2.08;;;;;;;;;;4968149;28;20054;-77
2022/05/27 05:41:59;;;;;;;4.18;1.70;;;;;;;;;;4966997;28;20027;-77
2022/05/27 05:44:26;;;;;;;4.68;2.17;;;;;;;;;;4969419;28;20447;-77
2022/05/27 05:46:52;;;;;;;4.55;1.80;;;;;;;;;;4962094;28;20031;-77
2022/05/27 05:49:18;;;;;;;4.63;1.70;;;;;;;;;;4958748;28;20521;-77
2022/05/27 05:51:44;;;;;;;4.20;1.67;;;;;;;;;;4973187;28;20049;-77
2022/05/27 05:54:10;;;;;;;4.20;1.83;;;;;;;;;;4986594;28;20396;-77
2022/05/27 05:56:36;;;;;;;7.95;2.22;;;;;;;;;;4964210;28;20058;-77
2022/05/27 05:59:03;;;;;;;4.93;1.70;;;;;;;;;;4969663;28;20066;-78
2022/05/27 06:01:29;;;;;;;4.30;1.75;;;;;;;;;;4970063;28;20110;-77
2022/05/27 06:03:55;;;;;;;3.60;1.70;;;;;;;;;;4971045;28;20031;-79
2022/05/27 06:06:21;;;;;;;5.18;2.03;;;;;;;;;;4971013;28;20105;-78
2022/05/27 06:08:47;;;;;;;4.97;1.80;;;;;;;;;;4971534;28;20050;-77
2022/05/27 06:11:14;;;;;;;3.63;1.75;;;;;;;;;;4974449;28;20022;-77
2022/05/27 06:13:40;;;;;;;3.88;1.80;;;;;;;;;;4969956;28;20481;-78
2022/05/27 06:16:06;;;;;;;5.45;2.00;;;;;;;;;;4979564;28;20031;-77
2022/05/27 06:18:33;;;;;;;4.22;1.92;;;;;;;;;;4971726;28;20034;-78
2022/05/27 06:20:59;;;;;;;4.45;2.00;;;;;;;;;;4974804;28;20090;-78
2022/05/27 06:23:28;;;;;;;3.72;1.98;;;;;;;;;;4971867;28;20031;-77
2022/05/27 06:25:58;;;;;;;5.43;2.00;;;;;;;;;;4963343;28;20019;-77
2022/05/27 06:36:39;;;;;;;4.78;2.10;;;;;;;;;;4960453;28;20074;-77
2022/05/27 06:39:05;;;;;;;4.22;2.15;;;;;;;;;;4975841;28;20078;-77
2022/05/27 06:41:32;;;;;;;4.15;2.08;;;;;;;;;;4975759;28;20102;-78
2022/05/27 06:43:58;;;;;;;5.55;2.10;;;;;;;;;;4968337;28;20023;-77
2022/05/27 06:46:24;;;;;;;4.68;2.00;;;;;;;;;;4964169;28;20443;-77
2022/05/27 06:48:50;;;;;;;3.50;1.60;;;;;;;;;;4962433;28;20028;-77
2022/05/27 06:51:18;;;;;;;4.88;2.00;;;;;;;;;;4967573;28;20035;-78
2022/05/27 06:53:45;;;;;;;6.05;2.20;;;;;;;;;;4971465;28;20429;-78
2022/05/27 06:56:11;;;;;;;4.13;1.77;;;;;;;;;;4975742;28;20039;-77
2022/05/27 06:58:38;;;;;;;4.40;1.80;;;;;;;;;;4975581;28;20035;-77
2022/05/27 07:01:04;;;;;;;3.67;1.80;;;;;;;;;;4975629;28;20374;-79
2022/05/27 07:03:31;;;;;;;4.22;1.80;;;;;;;;;;4971434;28;20031;-77
2022/05/27 07:05:57;;;;;;;4.10;1.85;;;;;;;;;;4975727;28;20050;-77
2022/05/27 07:08:23;;;;;;;4.55;2.17;;;;;;;;;;4975399;28;20039;-78
2022/05/27 07:10:49;;;;;;;6.32;2.40;;;;;;;;;;4975482;28;20033;-77
2022/05/27 07:13:15;;;;;;;4.10;1.90;;;;;;;;;;4975144;28;20493;-78
2022/05/27 07:15:42;;;;;;;4.40;2.10;;;;;;;;;;4971649;28;20026;-78
2022/05/27 07:18:08;;;;;;;3.45;1.88;;;;;;;;;;4973963;28;20493;-78
2022/05/27 07:20:37;;;;;;;4.65;2.00;;;;;;;;;;4974377;28;20473;-77
2022/05/27 07:23:04;;;;;;;4.10;1.80;;;;;;;;;;4975186;28;20025;-77
2022/05/27 07:25:34;;;;;;;4.15;1.67;;;;;;;;;;4975142;28;20102;-77
2022/05/27 07:28:00;;;;;;;4.95;1.80;;;;;;;;;;4975023;28;20039;-78
2022/05/27 07:30:26;;;;;;;3.67;1.95;;;;;;;;;;4975008;28;20027;-77
2022/05/27 07:32:52;;;;;;;3.90;1.92;;;;;;;;;;4976381;28;20034;-78
2022/05/27 07:35:18;;;;;;;4.35;1.70;;;;;;;;;;4975987;28;20027;-77
2022/05/27 07:37:44;;;;;;;4.60;1.80;;;;;;;;;;4973712;28;20122;-78
2022/05/27 07:40:11;;;;;;;6.60;1.63;;;;;;;;;;4972722;28;20019;-77
2022/05/27 07:42:38;;;;;;;4.60;1.80;;;;;;;;;;4973431;28;20034;-78
2022/05/27 07:45:05;;;;;;;3.88;1.50;;;;;;;;;;4975602;28;20493;-77
2022/05/27 07:47:31;;;;;;;4.43;1.70;;;;;;;;;;4975351;28;20033;-79
2022/05/27 07:49:57;;;;;;;5.93;1.65;;;;;;;;;;4974765;28;20046;-78
2022/05/27 07:52:24;;;;;;;4.10;1.70;;;;;;;;;;4974541;28;20478;-78
2022/05/27 07:54:51;;;;;;;4.88;1.90;;;;;;;;;;4974081;28;20092;-78
2022/05/27 07:57:24;;;;;;;4.57;1.67;;;;;;;;;;4957623;28;20034;-78
2022/05/27 07:59:51;;;;;;;3.80;1.90;;;;;;;;;;4967222;28;20126;-78
2022/05/27 08:02:17;;;;;;;5.05;1.90;;;;;;;;;;4974771;28;20046;-77
2022/05/27 08:04:43;;;;;;;4.57;1.70;;;;;;;;;;4974780;28;20046;-78
2022/05/27 08:07:09;;;;;;;3.65;1.50;;;;;;;;;;4974775;28;20464;-78
2022/05/27 08:09:35;;;;;;;4.65;1.58;;;;;;;;;;4977321;28;20023;-78
2022/05/27 08:12:01;;;;;;;3.30;1.73;;;;;;;;;;4980785;28;20031;-78
2022/05/27 08:14:27;;;;;;;5.13;2.05;;;;;;;;;;4978366;28;20073;-79
2022/05/27 08:16:53;;;;;;;5.00;2.20;;;;;;;;;;4977005;28;20031;-79
2022/05/27 08:19:19;;;;;;;8.98;2.15;;;;;;;;;;4977831;28;20116;-78
2022/05/27 08:21:45;;;;;;;3.13;1.40;;;;;;;;;;4961671;28;20035;-78
2022/05/27 08:24:11;;;;;;;5.53;2.00;;;;;;;;;;4974044;28;20030;-78
2022/05/27 08:26:38;;;;;;;3.38;1.48;;;;;;;;;;4976662;28;20023;-79
2022/05/27 08:29:04;;;;;;;6.03;1.80;;;;;;;;;;4976769;28;20035;-78
2022/05/27 08:31:30;;;;;;;3.75;1.52;;;;;;;;;;4975314;28;20081;-78
2022/05/27 08:39:26;;;;;;;5.68;1.90;;;;;;;;;;4978563;28;20030;-78
2022/05/27 08:41:59;;;;;;;4.88;1.88;;;;;;;;;;4976194;28;20035;-78
2022/05/27 08:44:28;;;;;;;4.57;1.70;;;;;;;;;;4976424;28;20054;-79
2022/05/27 08:46:57;;;;;;;3.78;1.90;;;;;;;;;;4961696;28;20073;-79
2022/05/27 08:49:30;;;;;;;4.25;1.70;;;;;;;;;;4956480;28;20031;-78
2022/05/27 08:51:56;;;;;;;;;;;;;;;;;;4958207;28;20067;-78
2022/05/27 08:54:29;;;;;;;4.07;1.50;;;;;;;;;;4971986;28;19945;-78
2022/05/27 08:59:45;;;;;;;3.72;1.50;;;;;;;;;;4962856;28;20417;-79
2022/05/27 09:02:16;;;;;;;4.88;1.98;;;;;;;;;;4977450;28;20065;-83
2022/05/27 09:04:49;;;;;;;3.30;1.50;;;;;;;;;;4977342;28;20073;-78
2022/05/27 09:07:35;;;;;;;3.60;1.50;;;;;;;;;;4975824;28;20047;-79
2022/05/27 09:10:03;;;;;;;4.82;1.77;;;;;;;;;;4956549;28;20046;-78
2022/05/27 09:12:41;;;;;;;7.35;1.80;;;;;;;;;;4957635;28;20412;-79
2022/05/27 09:15:13;;;;;;;4.70;1.95;;;;;;;;;;4968097;28;20027;-80
2022/05/27 09:17:42;;;;;;;4.95;1.70;;;;;;;;;;4971559;28;20043;-79
2022/05/27 09:20:11;;;;;;;4.32;1.70;;;;;;;;;;4957598;28;20102;-80
2022/05/27 09:22:56;;;;;;;3.55;2.00;;;;;;;;;;4957882;28;20478;-81
2022/05/27 09:25:32;;;;;;;4.25;1.50;;;;;;;;;;4977070;28;20029;-82
2022/05/27 09:27:58;;;;;;;4.75;1.60;;;;;;;;;;4957963;28;20129;-79
2022/05/27 09:30:24;;;;;;;5.22;1.67;;;;;;;;;;4966690;28;20027;-79
2022/05/27 09:32:52;;;;;;;3.83;1.60;;;;;;;;;;4975065;28;20064;-79
2022/05/27 09:35:21;;;;;;;3.30;1.40;;;;;;;;;;4976482;28;20018;-78
2022/05/27 09:37:50;;;;;;;5.25;1.52;;;;;;;;;;4963094;28;20026;-78
2022/05/27 09:40:36;;;;;;;3.47;1.58;;;;;;;;;;4972641;28;20112;-77
2022/05/27 09:43:05;;;;;;;6.68;1.70;;;;;;;;;;4974176;28;20039;-80
2022/05/27 09:45:31;;;;;;;5.15;1.52;;;;;;;;;;4972273;28;20514;-77
2022/05/27 09:47:59;;;;;;;3.80;1.58;;;;;;;;;;4958092;28;20027;-80
2022/05/27 09:50:27;;;;;;;4.57;1.80;;;;;;;;;;4982799;28;20052;-78
2022/05/27 09:52:55;;;;;;;3.60;1.70;;;;;;;;;;4981373;28;20046;-80
2022/05/27 09:55:27;;;;;;;6.05;1.73;;;;;;;;;;4969253;28;20109;-77
2022/05/27 09:57:54;;;;;;;4.07;1.70;;;;;;;;;;4971970;28;20042;-77
2022/05/27 10:00:33;;;;;;;3.63;1.60;;;;;;;;;;4972967;28;20033;-78
2022/05/27 10:02:59;;;;;;;4.93;1.70;;;;;;;;;;4973234;28;20035;-77
2022/05/27 10:05:26;;;;;;;3.78;1.65;;;;;;;;;;4973583;28;20030;-80
2022/05/27 10:07:53;;;;;;;2.85;1.50;;;;;;;;;;4974454;28;20488;-81
2022/05/27 10:10:28;;;;;;;3.75;1.60;;;;;;;;;;4965943;28;20031;-80
2022/05/27 10:12:55;;;;;;;4.85;1.67;;;;;;;;;;4981467;28;20045;-77
2022/05/27 10:15:25;;;;;;;4.68;1.90;;;;;;;;;;4973518;28;20026;-79
2022/05/27 10:17:51;;;;;;;5.75;1.75;;;;;;;;;;4973033;28;20042;-79
2022/05/27 10:20:17;;;;;;;3.70;1.65;;;;;;;;;;4974428;28;20034;-79
2022/05/27 10:22:56;;;;;;;3.63;1.85;;;;;;;;;;4957665;28;20123;-78
2022/05/27 10:25:29;;;;;;;3.53;1.80;;;;;;;;;;4974385;28;20489;-80
2022/05/27 10:27:55;;;;;;;3.83;1.40;;;;;;;;;;4975176;28;20101;-79
2022/05/27 10:30:29;;;;;;;3.55;1.45;;;;;;;;;;4959365;28;20085;-77
2022/05/27 10:32:56;;;;;;;3.15;1.40;;;;;;;;;;4977355;28;20038;-77
2022/05/27 10:35:31;;;;;;;4.05;1.73;;;;;;;;;;4966762;28;20047;-78
2022/05/27 10:37:57;;;;;;;3.83;2.00;;;;;;;;;;4969247;28;20034;-78
2022/05/27 10:40:23;;;;;;;3.70;1.60;;;;;;;;;;4978990;28;20015;-77
2022/05/27 10:42:52;;;;;;;4.47;1.80;;;;;;;;;;4975865;28;20028;-78
2022/05/27 10:45:20;;;;;;;4.70;1.52;;;;;;;;;;4970930;28;20528;-77
2022/05/27 10:47:55;;;;;;;3.40;1.40;;;;;;;;;;4977606;28;20031;-80
2022/05/27 10:50:21;;;;;;;3.47;1.60;;;;;;;;;;4968059;28;20031;-79
2022/05/27 10:52:57;;;;;;;3.25;1.70;;;;;;;;;;4974567;28;20110;-80
2022/05/27 10:55:42;;;;;;;5.10;1.80;;;;;;;;;;4975007;28;20031;-79
2022/05/27 11:04:26;;;;;;;3.50;1.63;;;;;;;;;;4984110;28;20092;-81
2022/05/27 11:06:52;;;;;;;4.10;1.67;;;;;;;;;;4975694;28;20031;-80
2022/05/27 11:09:30;;;;;;;4.35;1.60;;;;;;;;;;4978515;28;20558;-81
2022/05/27 11:11:59;;;;;;;6.47;1.60;;;;;;;;;;4977334;28;20031;-78
2022/05/27 11:17:28;;;;;;;;;;;;;;;;;;4972813;28;20037;-79
2022/05/27 11:20:13;;;;;;;4.15;1.77;;;;;;;;;;4984258;28;19906;-79
2022/05/27 11:23:04;;;;;;;3.63;1.70;;;;;;;;;;4968051;28;20015;-77
2022/05/27 11:25:53;;;;;;;5.00;1.80;;;;;;;;;;4962350;28;20034;-76
2022/05/27 11:28:24;;;;;;;4.35;1.90;;;;;;;;;;4966912;28;20035;-78
2022/05/27 11:30:53;;;;;;;3.88;1.88;;;;;;;;;;4975219;28;20031;-78
2022/05/27 11:33:39;;;;;;;4.75;2.00;;;;;;;;;;4975042;28;20027;-77
2022/05/27 11:36:21;;;;;;;4.97;1.83;;;;;;;;;;4968922;28;20043;-78
2022/05/27 11:38:53;;;;;;;5.78;1.98;;;;;;;;;;4964166;28;20023;-79
2022/05/27 11:41:25;;;;;;;4.70;1.75;;;;;;;;;;4973964;28;20045;-78
2022/05/27 11:44:02;;;;;;;4.32;1.40;;;;;;;;;;4966513;28;20058;-79
2022/05/27 11:46:45;;;;;;;4.25;1.70;;;;;;;;;;4973825;28;20062;-78
2022/05/27 11:49:21;;;;;;;3.53;1.65;;;;;;;;;;4965299;28;20035;-77
2022/05/27 11:52:08;;;;;;;7.30;2.00;;;;;;;;;;4975812;28;20082;-80
2022/05/27 11:54:49;;;;;;;4.53;1.58;;;;;;;;;;4965842;28;20164;-79
2022/05/27 11:57:19;;;;;;;4.07;1.63;;;;;;;;;;4975289;28;20046;-79
2022/05/27 12:00:11;;;;;;;4.20;1.40;;;;;;;;;;4978227;28;20090;-82
2022/05/27 12:02:56;;;;;;;3.75;1.60;;;;;;;;;;4971698;28;20038;-78
2022/05/27 12:05:23;;;;;;;4.38;1.80;;;;;;;;;;4975822;28;20073;-79
2022/05/27 12:07:49;;;;;;;5.07;2.08;;;;;;;;;;4976281;28;20440;-79
2022/05/27 12:10:15;;;;;;;3.75;1.45;;;;;;;;;;4975746;28;20061;-80
2022/05/27 12:12:47;;;;;;;3.45;1.50;;;;;;;;;;4959734;28;20035;-79
2022/05/27 12:15:24;;;;;;;4.57;1.50;;;;;;;;;;4975488;28;20034;-79
2022/05/27 12:17:52;;;;;;;4.20;1.70;;;;;;;;;;4968877;28;20855;-79
2022/05/27 12:20:20;;;;;;;3.95;1.55;;;;;;;;;;4960902;28;20462;-79
2022/05/27 12:22:49;;;;;;;3.25;1.40;;;;;;;;;;4974330;28;20041;-80
2022/05/27 12:25:17;;;;;;;3.47;1.48;;;;;;;;;;4979911;28;20122;-78
2022/05/27 12:27:43;;;;;;;4.22;1.67;;;;;;;;;;4960449;28;20051;-80
2022/05/27 12:30:11;;;;;;;4.75;1.58;;;;;;;;;;4965409;28;20031;-80
2022/05/27 12:32:40;;;;;;;4.72;1.90;;;;;;;;;;4980557;28;20031;-78
2022/05/27 12:35:26;;;;;;;4.10;1.50;;;;;;;;;;4962633;28;20059;-79
2022/05/27 12:37:58;;;;;;;3.95;1.55;;;;;;;;;;4976508;28;20066;-79
2022/05/27 12:40:32;;;;;;;3.75;1.60;;;;;;;;;;4977534;28;20054;-79
2022/05/27 12:43:22;;;;;;;3.92;1.50;;;;;;;;;;4962398;28;20106;-79
2022/05/27 12:45:50;;;;;;;3.65;1.63;;;;;;;;;;4976794;28;20118;-80
2022/05/27 12:48:25;;;;;;;3.90;1.60;;;;;;;;;;4974727;28;20031;-77
2022/05/27 12:50:56;;;;;;;5.05;1.70;;;;;;;;;;4972015;28;20050;-78
2022/05/27 12:53:37;;;;;;;4.65;1.65;;;;;;;;;;4970454;28;20061;-78
2022/05/27 13:02:16;;;;;;;4.20;1.60;;;;;;;;;;4975816;28;20050;-79
2022/05/27 13:05:00;;;;;;;4.07;1.80;;;;;;;;;;4970356;28;20027;-77
2022/05/27 13:07:29;;;;;;;4.43;1.52;;;;;;;;;;4972855;28;20026;-76
2022/05/27 13:09:56;;;;;;;4.55;1.60;;;;;;;;;;4975281;28;20046;-77
2022/05/27 13:12:40;;;;;;;4.75;1.70;;;;;;;;;;4974004;28;20043;-79
2022/05/27 13:15:09;;;;;;;7.57;1.70;;;;;;;;;;4977379;28;20109;-78
2022/05/27 13:17:37;;;;;;;3.78;1.38;;;;;;;;;;4972946;28;20378;-78
2022/05/27 13:20:03;;;;;;;4.50;1.45;;;;;;;;;;4975631;28;20034;-79
2022/05/27 13:22:37;;;;;;;3.92;1.50;;;;;;;;;;4975020;28;20027;-80
2022/05/27 13:25:17;;;;;;;4.15;1.70;;;;;;;;;;4975497;28;20158;-81
2022/05/27 13:27:43;;;;;;;3.55;1.40;;;;;;;;;;4980135;28;20517;-79
2022/05/27 13:30:11;;;;;;;3.72;1.55;;;;;;;;;;4979242;28;20077;-82
2022/05/27 13:32:56;;;;;;;3.97;1.58;;;;;;;;;;4980445;28;20090;-82
2022/05/27 13:35:22;;;;;;;3.58;1.60;;;;;;;;;;4993193;28;20039;-79
2022/05/27 13:37:58;;;;;;;4.95;1.70;;;;;;;;;;4985813;28;20110;-80
2022/05/27 13:40:27;;;;;;;4.57;1.75;;;;;;;;;;4976791;28;20069;-79
2022/05/27 13:42:54;;;;;;;4.25;1.67;;;;;;;;;;4996513;28;20046;-78
2022/05/27 13:45:26;;;;;;;4.45;1.90;;;;;;;;;;4999303;28;20365;-80
2022/05/27 13:47:55;;;;;;;3.15;1.40;;;;;;;;;;4978976;28;20038;-80
2022/05/27 13:50:25;;;;;;;3.83;1.45;;;;;;;;;;4977133;28;20030;-83
2022/05/27 13:52:51;;;;;;;3.85;1.70;;;;;;;;;;4977560;28;20041;-80
2022/05/27 13:55:17;;;;;;;5.45;1.50;;;;;;;;;;4976402;28;20456;-80
2022/05/27 13:57:46;;;;;;;3.75;1.50;;;;;;;;;;4974045;28;20093;-83
2022/05/27 14:00:16;;;;;;;3.67;1.55;;;;;;;;;;4974344;28;20029;-80
2022/05/27 14:02:47;;;;;;;3.78;1.80;;;;;;;;;;4981123;28;20030;-81
2022/05/27 14:05:22;;;;;;;3.97;1.58;;;;;;;;;;4980701;28;20019;-79
2022/05/27 14:07:50;;;;;;;5.57;1.40;;;;;;;;;;4979702;28;20019;-79
2022/05/27 14:10:16;;;;;;;4.97;1.30;;;;;;;;;;4978117;28;20389;-81
2022/05/27 14:12:42;;;;;;;3.35;1.30;;;;;;;;;;4969399;28;20031;-81
2022/05/27 14:15:10;;;;;;;3.72;1.42;;;;;;;;;;4960105;28;20032;-81
2022/05/27 14:17:40;;;;;;;4.00;1.50;;;;;;;;;;4972820;28;20027;-83
2022/05/27 14:20:08;;;;;;;4.75;1.50;;;;;;;;;;4980218;28;20030;-80
2022/05/27 14:22:42;;;;;;;5.60;1.70;;;;;;;;;;4977111;28;20095;-79
2022/05/27 14:25:15;;;;;;;4.50;1.40;;;;;;;;;;4978341;28;20019;-80
2022/05/27 14:27:44;;;;;;;3.50;1.42;;;;;;;;;;4980354;28;20059;-80
2022/05/27 14:30:12;;;;;;;3.67;1.40;;;;;;;;;;4974661;28;20028;-81
2022/05/27 14:32:38;;;;;;;3.22;1.30;;;;;;;;;;4980477;28;20069;-80
2022/05/27 14:35:06;;;;;;;2.88;1.40;;;;;;;;;;4982911;28;20030;-80
2022/05/27 14:37:39;;;;;;;5.47;1.95;;;;;;;;;;4985497;28;20043;-81
2022/05/27 14:40:11;;;;;;;3.05;1.50;;;;;;;;;;4985026;28;20102;-81
2022/05/27 14:42:37;;;;;;;4.70;1.40;;;;;;;;;;4983236;28;20037;-80
2022/05/27 14:45:08;;;;;;;4.72;1.50;;;;;;;;;;4985230;28;20026;-82
2022/05/27 14:47:34;;;;;;;4.22;1.30;;;;;;;;;;4984710;28;20095;-81
2022/05/27 14:50:01;;;;;;;3.90;1.35;;;;;;;;;;4982385;28;20027;-81
2022/05/27 14:52:35;;;;;;;3.90;1.50;;;;;;;;;;4962257;28;20051;-81
2022/05/27 14:55:12;;;;;;;3.90;1.58;;;;;;;;;;4970069;28;20031;-80
2022/05/27 14:57:41;;;;;;;4.43;1.30;;;;;;;;;;4977996;28;20027;-80
2022/05/27 15:00:07;;;;;;;4.70;1.50;;;;;;;;;;4978599;28;20027;-80
2022/05/27 15:02:40;;;;;;;4.47;1.52;;;;;;;;;;4978572;28;20042;-79
2022/05/27 15:05:06;;;;;;;5.03;1.50;;;;;;;;;;4977414;28;20489;-80
2022/05/27 15:07:43;;;;;;;3.85;1.55;;;;;;;;;;4966799;28;20045;-78
2022/05/27 15:10:21;;;;;;;3.88;1.40;;;;;;;;;;4969366;28;20086;-80
2022/05/27 15:12:48;;;;;;;3.78;1.38;;;;;;;;;;4975316;28;20081;-79
2022/05/27 15:15:32;;;;;;;2.92;1.20;;;;;;;;;;4977541;28;20030;-78
2022/05/27 15:18:09;;;;;;;4.75;1.50;;;;;;;;;;4977995;28;20528;-79
2022/05/27 15:20:35;;;;;;;3.85;1.38;;;;;;;;;;4978742;28;20037;-79
2022/05/27 15:23:04;;;;;;;3.72;1.67;;;;;;;;;;4977920;28;20034;-80
2022/05/27 15:25:33;;;;;;;3.72;1.30;;;;;;;;;;4979581;28;20077;-81
2022/05/27 15:33:47;;;;;;;5.10;1.65;;;;;;;;;;4969539;28;20049;-80
2022/05/27 15:36:13;;;;;;;7.55;3.22;;;;;;;;;;4978025;28;20126;-80
2022/05/27 15:38:40;;;;;;;6.65;3.58;;;;;;;;;;4977322;28;20060;-78
2022/05/27 15:41:07;;;;;;;5.55;2.10;;;;;;;;;;4976116;28;20137;-81